PWSweather.com
Personal Weather Stations
Station Observations
IROGLAN40
AalgaardNO 4330

AalgaardNO 4330

Lat: 58.773, Lon: 5.846

Elevation: 326

Station Type: Davis Vanatge Pro2

www.mavahome.com

High Low Average
Temperature 31.7°F-0.2°C 22.7°F-5.2°C 26.6°F-3.0°C
Dew Point 14.2°F-9.9°C 2.9°F-16.2°C 9.0°F-12.8°C
Winds 12.7 mph 20.4 kmh Calm Calm 5.0 mph S8.0 kmh S
Wind Gusts 26.5 mph42.6 kmh -- 9.0 mph14.5 kmh
Humidity 59% 37% 47%
Pressure 30.39 in1029.1 mb 30.00 in1015.9 mb -
Precipitation 0.00 in0.0 mm - -
Hour Temp Dew Point Humidity Winds Wind Gusts Pressure Precip Precip Rate Daily Precip Total
12:00 AM 27.9°F-2.3°C 14.2°F-9.9°C 56% 6.9 mph WSW11.1 kmh WSW 12.7 mph20.4 kmh 30.00 in1015.9 mb - 0.00 in0.0 mm 0.00 in0.0 mm
12:10 AM 28.0°F-2.2°C 13.9°F-10.1°C 55% 8.1 mph WNW13.0 kmh WNW 11.5 mph18.5 kmh 30.01 in1016.3 mb - 0.00 in0.0 mm 0.00 in0.0 mm
12:20 AM 27.6°F-2.4°C 13.9°F-10.1°C 56% 6.9 mph WSW11.1 kmh WSW 16.1 mph25.9 kmh 30.01 in1016.3 mb - 0.00 in0.0 mm 0.00 in0.0 mm
12:30 AM 27.6°F-2.4°C 13.9°F-10.1°C 56% 4.6 mph SSE7.4 kmh SSE 6.9 mph11.1 kmh 30.02 in1016.6 mb - 0.00 in0.0 mm 0.00 in0.0 mm
12:40 AM 27.2°F-2.7°C 13.6°F-10.2°C 56% 8.1 mph W13.0 kmh W 16.1 mph25.9 kmh 30.02 in1016.6 mb - 0.00 in0.0 mm 0.00 in0.0 mm
12:50 AM 27.2°F-2.7°C 13.6°F-10.2°C 56% 5.8 mph S9.3 kmh S 9.2 mph14.8 kmh 30.02 in1016.6 mb - 0.00 in0.0 mm 0.00 in0.0 mm
01:00 AM 27.1°F-2.7°C 13.5°F-10.3°C 56% 3.5 mph WSW5.6 kmh WSW 6.9 mph11.1 kmh 30.02 in1016.6 mb - 0.00 in0.0 mm 0.00 in0.0 mm
01:10 AM 27.2°F-2.7°C 13.6°F-10.2°C 56% 8.1 mph NNW13.0 kmh NNW 11.5 mph18.5 kmh 30.02 in1016.6 mb - 0.00 in0.0 mm 0.00 in0.0 mm
01:20 AM 27.1°F-2.7°C 13.5°F-10.3°C 56% 8.1 mph WSW13.0 kmh WSW 12.7 mph20.4 kmh 30.02 in1016.6 mb - 0.00 in0.0 mm 0.00 in0.0 mm
01:30 AM 27.2°F-2.7°C 13.6°F-10.2°C 56% 3.5 mph SSW5.6 kmh SSW 11.5 mph18.5 kmh 30.02 in1016.6 mb - 0.00 in0.0 mm 0.00 in0.0 mm
01:40 AM 27.4°F-2.6°C 13.3°F-10.4°C 55% 9.2 mph WSW14.8 kmh WSW 26.5 mph42.6 kmh 30.02 in1016.6 mb - 0.00 in0.0 mm 0.00 in0.0 mm
01:50 AM 27.3°F-2.6°C 13.2°F-10.4°C 55% 10.4 mph WSW16.7 kmh WSW 18.4 mph29.6 kmh 30.02 in1016.6 mb - 0.00 in0.0 mm 0.00 in0.0 mm
02:00 AM 27.4°F-2.6°C 12.9°F-10.6°C 54% 8.1 mph SSW13.0 kmh SSW 15.0 mph24.1 kmh 30.03 in1016.9 mb - 0.00 in0.0 mm 0.00 in0.0 mm
02:10 AM 27.2°F-2.7°C 12.8°F-10.7°C 54% 11.5 mph W18.5 kmh W 16.1 mph25.9 kmh 30.03 in1016.9 mb - 0.00 in0.0 mm 0.00 in0.0 mm
02:20 AM 26.9°F-2.8°C 12.9°F-10.6°C 55% 8.1 mph WNW13.0 kmh WNW 15.0 mph24.1 kmh 30.04 in1017.3 mb - 0.00 in0.0 mm 0.00 in0.0 mm
02:30 AM 26.7°F-2.9°C 13.1°F-10.5°C 56% 9.2 mph WSW14.8 kmh WSW 15.0 mph24.1 kmh 30.04 in1017.3 mb - 0.00 in0.0 mm 0.00 in0.0 mm
02:40 AM 26.7°F-2.9°C 13.1°F-10.5°C 56% 5.8 mph NW9.3 kmh NW 10.4 mph16.7 kmh 30.04 in1017.3 mb - 0.00 in0.0 mm 0.00 in0.0 mm
02:50 AM 26.7°F-2.9°C 12.7°F-10.7°C 55% 9.2 mph NNW14.8 kmh NNW 17.3 mph27.8 kmh 30.05 in1017.6 mb - 0.00 in0.0 mm 0.00 in0.0 mm
03:00 AM 26.5°F-3.1°C 12.5°F-10.8°C 55% 11.5 mph W18.5 kmh W 20.7 mph33.3 kmh 30.04 in1017.3 mb - 0.00 in0.0 mm 0.00 in0.0 mm
03:10 AM 26.4°F-3.1°C 12.4°F-10.9°C 55% 10.4 mph WNW16.7 kmh WNW 15.0 mph24.1 kmh 30.05 in1017.6 mb - 0.00 in0.0 mm 0.00 in0.0 mm
03:20 AM 26.3°F-3.2°C 12.3°F-10.9°C 55% 5.8 mph NE9.3 kmh NE 6.9 mph11.1 kmh 30.05 in1017.6 mb - 0.00 in0.0 mm 0.00 in0.0 mm
03:30 AM 26.1°F-3.3°C 12.5°F-10.8°C 56% 4.6 mph SW7.4 kmh SW 9.2 mph14.8 kmh 30.04 in1017.3 mb - 0.00 in0.0 mm 0.00 in0.0 mm
03:40 AM 25.9°F-3.4°C 12.8°F-10.7°C 57% 2.3 mph SE3.7 kmh SE 6.9 mph11.1 kmh 30.05 in1017.6 mb - 0.00 in0.0 mm 0.00 in0.0 mm
03:50 AM 25.7°F-3.5°C 12.9°F-10.6°C 58% 4.6 mph W7.4 kmh W 5.8 mph9.3 kmh 30.05 in1017.6 mb - 0.00 in0.0 mm 0.00 in0.0 mm
04:00 AM 25.5°F-3.6°C 12.8°F-10.7°C 58% 1.2 mph WSW1.9 kmh WSW 3.5 mph5.6 kmh 30.06 in1017.9 mb - 0.00 in0.0 mm 0.00 in0.0 mm
04:10 AM 25.3°F-3.7°C 12.6°F-10.8°C 58% 3.5 mph S5.6 kmh S 4.6 mph7.4 kmh 30.06 in1017.9 mb - 0.00 in0.0 mm 0.00 in0.0 mm
04:20 AM 25.3°F-3.7°C 12.6°F-10.8°C 58% 3.5 mph SW5.6 kmh SW 5.8 mph9.3 kmh 30.06 in1017.9 mb - 0.00 in0.0 mm 0.00 in0.0 mm
04:30 AM 25.1°F-3.8°C 12.4°F-10.9°C 58% 3.5 mph SSW5.6 kmh SSW 5.8 mph9.3 kmh 30.07 in1018.3 mb - 0.00 in0.0 mm 0.00 in0.0 mm
04:40 AM 24.9°F-3.9°C 12.6°F-10.8°C 59% 2.3 mph SW3.7 kmh SW 5.8 mph9.3 kmh 30.08 in1018.6 mb - 0.00 in0.0 mm 0.00 in0.0 mm
04:50 AM 24.9°F-3.9°C 12.2°F-11.0°C 58% 4.6 mph S7.4 kmh S 6.9 mph11.1 kmh 30.08 in1018.6 mb - 0.00 in0.0 mm 0.00 in0.0 mm
05:00 AM 24.8°F-4.0°C 12.1°F-11.1°C 58% 5.8 mph W9.3 kmh W 11.5 mph18.5 kmh 30.08 in1018.6 mb - 0.00 in0.0 mm 0.00 in0.0 mm
05:10 AM 24.5°F-4.2°C 11.8°F-11.2°C 58% Calm Calm 1.2 mph1.9 kmh 30.09 in1019.0 mb - 0.00 in0.0 mm 0.00 in0.0 mm
05:20 AM 24.3°F-4.3°C 11.7°F-11.3°C 58% 2.3 mph SSW3.7 kmh SSW 6.9 mph11.1 kmh 30.09 in1019.0 mb - 0.00 in0.0 mm 0.00 in0.0 mm
05:30 AM 24.2°F-4.3°C 11.5°F-11.4°C 58% 4.6 mph S7.4 kmh S 13.8 mph22.2 kmh 30.09 in1019.0 mb - 0.00 in0.0 mm 0.00 in0.0 mm
05:40 AM 23.9°F-4.5°C 10.9°F-11.7°C 57% 3.5 mph WSW5.6 kmh WSW 5.8 mph9.3 kmh 30.09 in1019.0 mb - 0.00 in0.0 mm 0.00 in0.0 mm
05:50 AM 23.8°F-4.6°C 10.4°F-12.0°C 56% 3.5 mph WSW5.6 kmh WSW 5.8 mph9.3 kmh 30.10 in1019.3 mb - 0.00 in0.0 mm 0.00 in0.0 mm
06:00 AM 23.6°F-4.7°C 9.8°F-12.3°C 55% Calm Calm 3.5 mph5.6 kmh 30.10 in1019.3 mb - 0.00 in0.0 mm 0.00 in0.0 mm
06:10 AM 23.6°F-4.7°C 8.9°F-12.8°C 53% 6.9 mph NNE11.1 kmh NNE 17.3 mph27.8 kmh 30.11 in1019.6 mb - 0.00 in0.0 mm 0.00 in0.0 mm
06:20 AM 23.6°F-4.7°C 7.2°F-13.8°C 49% 4.6 mph SW7.4 kmh SW 9.2 mph14.8 kmh 30.11 in1019.6 mb - 0.00 in0.0 mm 0.00 in0.0 mm
06:30 AM 23.9°F-4.5°C 6.1°F-14.4°C 46% 2.3 mph SW3.7 kmh SW 3.5 mph5.6 kmh 30.11 in1019.6 mb - 0.00 in0.0 mm 0.00 in0.0 mm
06:40 AM 23.7°F-4.6°C 5.4°F-14.8°C 45% 2.3 mph WSW3.7 kmh WSW 3.5 mph5.6 kmh 30.11 in1019.6 mb - 0.00 in0.0 mm 0.00 in0.0 mm
06:50 AM 23.5°F-4.7°C 5.2°F-14.9°C 45% 1.2 mph WSW1.9 kmh WSW 4.6 mph7.4 kmh 30.12 in1020.0 mb - 0.00 in0.0 mm 0.00 in0.0 mm
07:00 AM 23.6°F-4.7°C 5.3°F-14.8°C 45% Calm Calm 1.2 mph1.9 kmh 30.12 in1020.0 mb - 0.00 in0.0 mm 0.00 in0.0 mm
07:10 AM 23.3°F-4.8°C 4.5°F-15.3°C 44% 1.2 mph SE1.9 kmh SE 2.3 mph3.7 kmh 30.12 in1020.0 mb - 0.00 in0.0 mm 0.00 in0.0 mm
07:20 AM 22.9°F-5.1°C 4.7°F-15.2°C 45% Calm Calm 1.2 mph1.9 kmh 30.13 in1020.3 mb - 0.00 in0.0 mm 0.00 in0.0 mm
07:30 AM 23.1°F-4.9°C 4.4°F-15.3°C 44% 3.5 mph W5.6 kmh W 5.8 mph9.3 kmh 30.13 in1020.3 mb - 0.00 in0.0 mm 0.00 in0.0 mm
07:40 AM 23.5°F-4.7°C 3.2°F-16.0°C 41% 4.6 mph W7.4 kmh W 9.2 mph14.8 kmh 30.13 in1020.3 mb - 0.00 in0.0 mm 0.00 in0.0 mm
07:50 AM 23.7°F-4.6°C 2.9°F-16.2°C 40% 5.8 mph SW9.3 kmh SW 11.5 mph18.5 kmh 30.14 in1020.7 mb - 0.00 in0.0 mm 0.00 in0.0 mm
08:00 AM 23.7°F-4.6°C 2.9°F-16.2°C 40% 3.5 mph SE5.6 kmh SE 6.9 mph11.1 kmh 30.14 in1020.7 mb - 0.00 in0.0 mm 0.00 in0.0 mm
08:10 AM 23.8°F-4.6°C 3.0°F-16.1°C 40% 6.9 mph W11.1 kmh W 11.5 mph18.5 kmh 30.14 in1020.7 mb - 0.00 in0.0 mm 0.00 in0.0 mm
08:20 AM 23.7°F-4.6°C 3.4°F-15.9°C 41% 3.5 mph W5.6 kmh W 3.5 mph5.6 kmh 30.15 in1021.0 mb - 0.00 in0.0 mm 0.00 in0.0 mm
08:30 AM 23.6°F-4.7°C 3.8°F-15.7°C 42% 6.9 mph WSW11.1 kmh WSW 19.6 mph31.5 kmh 30.15 in1021.0 mb - 0.00 in0.0 mm 0.00 in0.0 mm
08:40 AM 23.7°F-4.6°C 4.9°F-15.1°C 44% 2.3 mph NW3.7 kmh NW 8.1 mph13.0 kmh 30.15 in1021.0 mb - 0.00 in0.0 mm 0.00 in0.0 mm
08:50 AM 23.8°F-4.6°C 4.5°F-15.3°C 43% 6.9 mph W11.1 kmh W 11.5 mph18.5 kmh 30.15 in1021.0 mb - 0.00 in0.0 mm 0.00 in0.0 mm
09:00 AM 23.9°F-4.5°C 4.6°F-15.2°C 43% 4.6 mph N7.4 kmh N 3.5 mph5.6 kmh 30.15 in1021.0 mb - 0.00 in0.0 mm 0.00 in0.0 mm
09:10 AM 23.1°F-4.9°C 4.9°F-15.1°C 45% Calm Calm -- 30.16 in1021.3 mb - 0.00 in0.0 mm 0.00 in0.0 mm
09:20 AM 23.1°F-4.9°C 4.9°F-15.1°C 45% Calm Calm -- 30.17 in1021.7 mb - 0.00 in0.0 mm 0.00 in0.0 mm
09:30 AM 22.7°F-5.2°C 5.0°F-15.0°C 46% Calm Calm -- 30.17 in1021.7 mb - 0.00 in0.0 mm 0.00 in0.0 mm
09:40 AM 22.9°F-5.1°C 5.6°F-14.7°C 47% Calm Calm -- 30.18 in1022.0 mb - 0.00 in0.0 mm 0.00 in0.0 mm
09:50 AM 22.7°F-5.2°C 5.9°F-14.5°C 48% Calm Calm -- 30.18 in1022.0 mb - 0.00 in0.0 mm 0.00 in0.0 mm
10:00 AM 23.3°F-4.8°C 6.0°F-14.4°C 47% Calm Calm -- 30.18 in1022.0 mb - 0.00 in0.0 mm 0.00 in0.0 mm
10:10 AM 23.5°F-4.7°C 6.2°F-14.3°C 47% Calm Calm -- 30.18 in1022.0 mb - 0.00 in0.0 mm 0.00 in0.0 mm
10:20 AM 23.8°F-4.6°C 6.5°F-14.2°C 47% Calm Calm -- 30.19 in1022.4 mb - 0.00 in0.0 mm 0.00 in0.0 mm
10:30 AM 23.9°F-4.5°C 6.1°F-14.4°C 46% Calm Calm -- 30.19 in1022.4 mb - 0.00 in0.0 mm 0.00 in0.0 mm
10:40 AM 24.3°F-4.3°C 6.9°F-13.9°C 47% Calm Calm -- 30.19 in1022.4 mb - 0.00 in0.0 mm 0.00 in0.0 mm
10:50 AM 28.5°F-1.9°C 8.3°F-13.2°C 42% 5.8 mph SE9.3 kmh SE 11.5 mph18.5 kmh 30.19 in1022.4 mb - 0.00 in0.0 mm 0.00 in0.0 mm
11:00 AM 29.5°F-1.4°C 9.2°F-12.7°C 42% 5.8 mph SE9.3 kmh SE 11.5 mph18.5 kmh 30.19 in1022.4 mb - 0.00 in0.0 mm 0.00 in0.0 mm
11:10 AM 30.4°F-0.9°C 9.5°F-12.5°C 41% 5.8 mph SE9.3 kmh SE 9.2 mph14.8 kmh 30.19 in1022.4 mb - 0.00 in0.0 mm 0.00 in0.0 mm
11:20 AM 29.8°F-1.2°C 8.4°F-13.1°C 40% 6.9 mph SE11.1 kmh SE 8.1 mph13.0 kmh 30.19 in1022.4 mb - 0.00 in0.0 mm 0.00 in0.0 mm
11:30 AM 28.9°F-1.7°C 8.1°F-13.3°C 41% 5.8 mph SSE9.3 kmh SSE 9.2 mph14.8 kmh 30.20 in1022.7 mb - 0.00 in0.0 mm 0.00 in0.0 mm
11:40 AM 30.6°F-0.8°C 9.6°F-12.4°C 41% 5.8 mph SE9.3 kmh SE 15.0 mph24.1 kmh 30.20 in1022.7 mb - 0.00 in0.0 mm 0.00 in0.0 mm
11:50 AM 30.1°F-1.1°C 9.2°F-12.7°C 41% 6.9 mph SE11.1 kmh SE 11.5 mph18.5 kmh 30.20 in1022.7 mb - 0.00 in0.0 mm 0.00 in0.0 mm
12:00 PM 29.7°F-1.3°C 8.3°F-13.2°C 40% 9.2 mph SE14.8 kmh SE 11.5 mph18.5 kmh 30.20 in1022.7 mb - 0.00 in0.0 mm 0.00 in0.0 mm
12:10 PM 30.9°F-0.6°C 9.9°F-12.3°C 41% 4.6 mph SE7.4 kmh SE 10.4 mph16.7 kmh 30.20 in1022.7 mb - 0.00 in0.0 mm 0.00 in0.0 mm
12:20 PM 30.3°F-0.9°C 9.4°F-12.6°C 41% 9.2 mph SE14.8 kmh SE 11.5 mph18.5 kmh 30.20 in1022.7 mb - 0.00 in0.0 mm 0.00 in0.0 mm
12:30 PM 30.5°F-0.8°C 10.1°F-12.2°C 42% 8.1 mph SE13.0 kmh SE 13.8 mph22.2 kmh 30.21 in1023.0 mb - 0.00 in0.0 mm 0.00 in0.0 mm
12:40 PM 30.4°F-0.9°C 9.5°F-12.5°C 41% 9.2 mph SE14.8 kmh SE 15.0 mph24.1 kmh 30.20 in1022.7 mb - 0.00 in0.0 mm 0.00 in0.0 mm
12:50 PM 30.2°F-1.0°C 8.7°F-12.9°C 40% 12.7 mph SE20.4 kmh SE 17.3 mph27.8 kmh 30.20 in1022.7 mb - 0.00 in0.0 mm 0.00 in0.0 mm
01:00 PM 30.2°F-1.0°C 10.4°F-12.0°C 43% 6.9 mph SE11.1 kmh SE 9.2 mph14.8 kmh 30.21 in1023.0 mb - 0.00 in0.0 mm 0.00 in0.0 mm
01:10 PM 30.5°F-0.8°C 10.1°F-12.2°C 42% 10.4 mph SSE16.7 kmh SSE 13.8 mph22.2 kmh 30.21 in1023.0 mb - 0.00 in0.0 mm 0.00 in0.0 mm
01:20 PM 31.1°F-0.5°C 11.2°F-11.6°C 43% 4.6 mph SE7.4 kmh SE 11.5 mph18.5 kmh 30.21 in1023.0 mb - 0.00 in0.0 mm 0.00 in0.0 mm
01:30 PM 31.3°F-0.4°C 10.9°F-11.7°C 42% 4.6 mph SE7.4 kmh SE 15.0 mph24.1 kmh 30.21 in1023.0 mb - 0.00 in0.0 mm 0.00 in0.0 mm
01:40 PM 30.6°F-0.8°C 9.7°F-12.4°C 41% 5.8 mph S9.3 kmh S 9.2 mph14.8 kmh 30.21 in1023.0 mb - 0.00 in0.0 mm 0.00 in0.0 mm
01:50 PM 31.1°F-0.5°C 11.7°F-11.3°C 44% 8.1 mph SE13.0 kmh SE 11.5 mph18.5 kmh 30.20 in1022.7 mb - 0.00 in0.0 mm 0.00 in0.0 mm
02:00 PM 31.1°F-0.5°C 11.2°F-11.6°C 43% 6.9 mph SE11.1 kmh SE 15.0 mph24.1 kmh 30.21 in1023.0 mb - 0.00 in0.0 mm 0.00 in0.0 mm
02:10 PM 30.1°F-1.1°C 10.2°F-12.1°C 43% 8.1 mph SSE13.0 kmh SSE 11.5 mph18.5 kmh 30.21 in1023.0 mb - 0.00 in0.0 mm 0.00 in0.0 mm
02:20 PM 30.4°F-0.9°C 10.6°F-11.9°C 43% 5.8 mph S9.3 kmh S 5.8 mph9.3 kmh 30.21 in1023.0 mb - 0.00 in0.0 mm 0.00 in0.0 mm
02:30 PM 30.5°F-0.8°C 10.1°F-12.2°C 42% 6.9 mph SSE11.1 kmh SSE 11.5 mph18.5 kmh 30.21 in1023.0 mb - 0.00 in0.0 mm 0.00 in0.0 mm
02:40 PM 30.6°F-0.8°C 10.7°F-11.8°C 43% 4.6 mph S7.4 kmh S 9.2 mph14.8 kmh 30.21 in1023.0 mb - 0.00 in0.0 mm 0.00 in0.0 mm
02:50 PM 31.1°F-0.5°C 10.6°F-11.9°C 42% 8.1 mph ESE13.0 kmh ESE 8.1 mph13.0 kmh 30.20 in1022.7 mb - 0.00 in0.0 mm 0.00 in0.0 mm
03:00 PM 31.3°F-0.4°C 11.3°F-11.5°C 43% 3.5 mph SSE5.6 kmh SSE 10.4 mph16.7 kmh 30.21 in1023.0 mb - 0.00 in0.0 mm 0.00 in0.0 mm
03:10 PM 31.1°F-0.5°C 11.2°F-11.6°C 43% 5.8 mph SE9.3 kmh SE 8.1 mph13.0 kmh 30.21 in1023.0 mb - 0.00 in0.0 mm 0.00 in0.0 mm
03:20 PM 31.7°F-0.2°C 10.6°F-11.9°C 41% 4.6 mph SSE7.4 kmh SSE 11.5 mph18.5 kmh 30.21 in1023.0 mb - 0.00 in0.0 mm 0.00 in0.0 mm
03:30 PM 31.6°F-0.2°C 10.0°F-12.2°C 40% 4.6 mph SE7.4 kmh SE 8.1 mph13.0 kmh 30.21 in1023.0 mb - 0.00 in0.0 mm 0.00 in0.0 mm
03:40 PM 31.4°F-0.3°C 9.3°F-12.6°C 39% 4.6 mph SE7.4 kmh SE 11.5 mph18.5 kmh 30.21 in1023.0 mb - 0.00 in0.0 mm 0.00 in0.0 mm
03:50 PM 31.5°F-0.3°C 8.8°F-12.9°C 38% 5.8 mph SSE9.3 kmh SSE 8.1 mph13.0 kmh 30.21 in1023.0 mb - 0.00 in0.0 mm 0.00 in0.0 mm
04:00 PM 30.6°F-0.8°C 8.0°F-13.3°C 38% 5.8 mph SE9.3 kmh SE 9.2 mph14.8 kmh 30.21 in1023.0 mb - 0.00 in0.0 mm 0.00 in0.0 mm
04:10 PM 31.6°F-0.2°C 9.4°F-12.6°C 39% 6.9 mph SE11.1 kmh SE 8.1 mph13.0 kmh 30.22 in1023.4 mb - 0.00 in0.0 mm 0.00 in0.0 mm
04:20 PM 31.2°F-0.4°C 9.1°F-12.7°C 39% 5.8 mph SE9.3 kmh SE 10.4 mph16.7 kmh 30.22 in1023.4 mb - 0.00 in0.0 mm 0.00 in0.0 mm
04:30 PM 31.0°F-0.6°C 7.7°F-13.5°C 37% 8.1 mph SE13.0 kmh SE 11.5 mph18.5 kmh 30.22 in1023.4 mb - 0.00 in0.0 mm 0.00 in0.0 mm
04:40 PM 30.6°F-0.8°C 7.4°F-13.7°C 37% 4.6 mph SE7.4 kmh SE 9.2 mph14.8 kmh 30.22 in1023.4 mb - 0.00 in0.0 mm 0.00 in0.0 mm
04:50 PM 31.0°F-0.6°C 7.7°F-13.5°C 37% 5.8 mph ESE9.3 kmh ESE 11.5 mph18.5 kmh 30.23 in1023.7 mb - 0.00 in0.0 mm 0.00 in0.0 mm
05:00 PM 30.6°F-0.8°C 8.0°F-13.3°C 38% 5.8 mph S9.3 kmh S 9.2 mph14.8 kmh 30.23 in1023.7 mb - 0.00 in0.0 mm 0.00 in0.0 mm
05:10 PM 31.1°F-0.5°C 7.8°F-13.4°C 37% 3.5 mph S5.6 kmh S 5.8 mph9.3 kmh 30.24 in1024.0 mb - 0.00 in0.0 mm 0.00 in0.0 mm
05:20 PM 30.6°F-0.8°C 8.5°F-13.1°C 39% 4.6 mph SSE7.4 kmh SSE 9.2 mph14.8 kmh 30.24 in1024.0 mb - 0.00 in0.0 mm 0.00 in0.0 mm
05:30 PM 29.9°F-1.2°C 6.8°F-14.0°C 37% 6.9 mph SE11.1 kmh SE 15.0 mph24.1 kmh 30.25 in1024.4 mb - 0.00 in0.0 mm 0.00 in0.0 mm
05:40 PM 29.7°F-1.3°C 7.2°F-13.8°C 38% 6.9 mph SE11.1 kmh SE 9.2 mph14.8 kmh 30.25 in1024.4 mb - 0.00 in0.0 mm 0.00 in0.0 mm
05:50 PM 29.4°F-1.4°C 7.4°F-13.7°C 39% 6.9 mph SE11.1 kmh SE 12.7 mph20.4 kmh 30.25 in1024.4 mb - 0.00 in0.0 mm 0.00 in0.0 mm
06:00 PM 28.4°F-2.0°C 7.7°F-13.5°C 41% 4.6 mph SE7.4 kmh SE 8.1 mph13.0 kmh 30.26 in1024.7 mb - 0.00 in0.0 mm 0.00 in0.0 mm
06:10 PM 28.0°F-2.2°C 7.3°F-13.7°C 41% 4.6 mph SE7.4 kmh SE 8.1 mph13.0 kmh 30.26 in1024.7 mb - 0.00 in0.0 mm 0.00 in0.0 mm
06:20 PM 27.5°F-2.5°C 6.8°F-14.0°C 41% 5.8 mph SE9.3 kmh SE 9.2 mph14.8 kmh 30.26 in1024.7 mb - 0.00 in0.0 mm 0.00 in0.0 mm
06:30 PM 27.1°F-2.7°C 7.0°F-13.9°C 42% 6.9 mph SE11.1 kmh SE 10.4 mph16.7 kmh 30.27 in1025.1 mb - 0.00 in0.0 mm 0.00 in0.0 mm
06:40 PM 26.9°F-2.8°C 6.8°F-14.0°C 42% 4.6 mph ESE7.4 kmh ESE 8.1 mph13.0 kmh 30.27 in1025.1 mb - 0.00 in0.0 mm 0.00 in0.0 mm
06:50 PM 26.6°F-3.0°C 7.6°F-13.6°C 44% 4.6 mph SE7.4 kmh SE 6.9 mph11.1 kmh 30.28 in1025.4 mb - 0.00 in0.0 mm 0.00 in0.0 mm
07:00 PM 26.4°F-3.1°C 7.4°F-13.7°C 44% 6.9 mph ESE11.1 kmh ESE 10.4 mph16.7 kmh 30.28 in1025.4 mb - 0.00 in0.0 mm 0.00 in0.0 mm
07:10 PM 26.2°F-3.2°C 7.7°F-13.5°C 45% 3.5 mph SE5.6 kmh SE 10.4 mph16.7 kmh 30.29 in1025.7 mb - 0.00 in0.0 mm 0.00 in0.0 mm
07:20 PM 25.9°F-3.4°C 7.9°F-13.4°C 46% 6.9 mph SE11.1 kmh SE 9.2 mph14.8 kmh 30.29 in1025.7 mb - 0.00 in0.0 mm 0.00 in0.0 mm
07:30 PM 25.7°F-3.5°C 7.7°F-13.5°C 46% 4.6 mph SE7.4 kmh SE 10.4 mph16.7 kmh 30.30 in1026.1 mb - 0.00 in0.0 mm 0.00 in0.0 mm
07:40 PM 25.5°F-3.6°C 8.1°F-13.3°C 47% 4.6 mph ESE7.4 kmh ESE 5.8 mph9.3 kmh 30.30 in1026.1 mb - 0.00 in0.0 mm 0.00 in0.0 mm
07:50 PM 25.3°F-3.7°C 8.3°F-13.2°C 48% 1.2 mph E1.9 kmh E 3.5 mph5.6 kmh 30.31 in1026.4 mb - 0.00 in0.0 mm 0.00 in0.0 mm
08:00 PM 25.0°F-3.9°C 8.0°F-13.3°C 48% 1.2 mph SE1.9 kmh SE 4.6 mph7.4 kmh 30.31 in1026.4 mb - 0.00 in0.0 mm 0.00 in0.0 mm
08:10 PM 24.8°F-4.0°C 7.9°F-13.4°C 48% 3.5 mph SE5.6 kmh SE 6.9 mph11.1 kmh 30.32 in1026.8 mb - 0.00 in0.0 mm 0.00 in0.0 mm
08:20 PM 24.8°F-4.0°C 7.9°F-13.4°C 48% 3.5 mph SE5.6 kmh SE 5.8 mph9.3 kmh 30.32 in1026.8 mb - 0.00 in0.0 mm 0.00 in0.0 mm
08:30 PM 24.7°F-4.1°C 7.8°F-13.4°C 48% 3.5 mph SE5.6 kmh SE 4.6 mph7.4 kmh 30.33 in1027.1 mb - 0.00 in0.0 mm 0.00 in0.0 mm
08:40 PM 24.5°F-4.2°C 8.0°F-13.3°C 49% 5.8 mph SE9.3 kmh SE 8.1 mph13.0 kmh 30.34 in1027.4 mb - 0.00 in0.0 mm 0.00 in0.0 mm
08:50 PM 24.4°F-4.2°C 8.4°F-13.1°C 50% 5.8 mph SE9.3 kmh SE 8.1 mph13.0 kmh 30.34 in1027.4 mb - 0.00 in0.0 mm 0.00 in0.0 mm
09:00 PM 24.3°F-4.3°C 8.3°F-13.2°C 50% 2.3 mph SE3.7 kmh SE 8.1 mph13.0 kmh 30.34 in1027.4 mb - 0.00 in0.0 mm 0.00 in0.0 mm
09:10 PM 24.3°F-4.3°C 8.3°F-13.2°C 50% 1.2 mph SE1.9 kmh SE 3.5 mph5.6 kmh 30.34 in1027.4 mb - 0.00 in0.0 mm 0.00 in0.0 mm
09:20 PM 24.0°F-4.4°C 8.5°F-13.1°C 51% 1.2 mph S1.9 kmh S 2.3 mph3.7 kmh 30.35 in1027.8 mb - 0.00 in0.0 mm 0.00 in0.0 mm
09:30 PM 23.9°F-4.5°C 7.9°F-13.4°C 50% Calm Calm 1.2 mph1.9 kmh 30.35 in1027.8 mb - 0.00 in0.0 mm 0.00 in0.0 mm
09:40 PM 23.8°F-4.6°C 8.3°F-13.2°C 51% 1.2 mph NE1.9 kmh NE 2.3 mph3.7 kmh 30.35 in1027.8 mb - 0.00 in0.0 mm 0.00 in0.0 mm
09:50 PM 23.7°F-4.6°C 8.6°F-13.0°C 52% 2.3 mph ENE3.7 kmh ENE 3.5 mph5.6 kmh 30.36 in1028.1 mb - 0.00 in0.0 mm 0.00 in0.0 mm
10:00 PM 23.7°F-4.6°C 8.6°F-13.0°C 52% 1.2 mph ENE1.9 kmh ENE 2.3 mph3.7 kmh 30.36 in1028.1 mb - 0.00 in0.0 mm 0.00 in0.0 mm
10:10 PM 23.8°F-4.6°C 8.7°F-12.9°C 52% 4.6 mph S7.4 kmh S 3.5 mph5.6 kmh 30.36 in1028.1 mb - 0.00 in0.0 mm 0.00 in0.0 mm
10:20 PM 24.0°F-4.4°C 8.9°F-12.8°C 52% 3.5 mph SSE5.6 kmh SSE 4.6 mph7.4 kmh 30.37 in1028.4 mb - 0.00 in0.0 mm 0.00 in0.0 mm
10:30 PM 23.9°F-4.5°C 7.5°F-13.6°C 49% 5.8 mph SSW9.3 kmh SSW 9.2 mph14.8 kmh 30.36 in1028.1 mb - 0.00 in0.0 mm 0.00 in0.0 mm
10:40 PM 23.8°F-4.6°C 7.8°F-13.4°C 50% 8.1 mph SW13.0 kmh SW 11.5 mph18.5 kmh 30.37 in1028.4 mb - 0.00 in0.0 mm 0.00 in0.0 mm
10:50 PM 23.7°F-4.6°C 8.2°F-13.2°C 51% 8.1 mph W13.0 kmh W 12.7 mph20.4 kmh 30.37 in1028.4 mb - 0.00 in0.0 mm 0.00 in0.0 mm
11:00 PM 23.7°F-4.6°C 8.1°F-13.3°C 51% 4.6 mph SSW7.4 kmh SSW 10.4 mph16.7 kmh 30.38 in1028.8 mb - 0.00 in0.0 mm 0.00 in0.0 mm
11:10 PM 23.6°F-4.7°C 8.1°F-13.3°C 51% 3.5 mph WSW5.6 kmh WSW 6.9 mph11.1 kmh 30.38 in1028.8 mb - 0.00 in0.0 mm 0.00 in0.0 mm
11:20 PM 23.8°F-4.6°C 8.7°F-12.9°C 52% 6.9 mph WSW11.1 kmh WSW 12.7 mph20.4 kmh 30.38 in1028.8 mb - 0.00 in0.0 mm 0.00 in0.0 mm
11:30 PM 24.0°F-4.4°C 8.9°F-12.8°C 52% 9.2 mph SW14.8 kmh SW 15.0 mph24.1 kmh 30.38 in1028.8 mb - 0.00 in0.0 mm 0.00 in0.0 mm
11:40 PM 23.8°F-4.6°C 8.7°F-12.9°C 52% 5.8 mph SW9.3 kmh SW 12.7 mph20.4 kmh 30.38 in1028.8 mb - 0.00 in0.0 mm 0.00 in0.0 mm
11:50 PM 23.9°F-4.5°C 7.5°F-13.6°C 49% 9.2 mph W14.8 kmh W 12.7 mph20.4 kmh 30.39 in1029.1 mb - 0.00 in0.0 mm 0.00 in0.0 mm